sensor_id;sensor_type;location;lat;lon;timestamp;P1;durP1;ratioP1;P2;durP2;ratioP2
74229;SDS011;62589;12.568;99.958;2022-08-04T00:02:04;2.97;;;0.22;;
74229;SDS011;62589;12.568;99.958;2022-08-04T00:04:43;1.60;;;0.20;;
74229;SDS011;62589;12.568;99.958;2022-08-04T00:07:24;2.25;;;0.22;;
74229;SDS011;62589;12.568;99.958;2022-08-04T00:10:00;0.57;;;0.10;;
74229;SDS011;62589;12.568;99.958;2022-08-04T00:12:30;1.42;;;0.25;;
74229;SDS011;62589;12.568;99.958;2022-08-04T00:14:59;0.77;;;0.10;;
74229;SDS011;62589;12.568;99.958;2022-08-04T00:17:29;0.32;;;0.00;;
74229;SDS011;62589;12.568;99.958;2022-08-04T00:20:03;1.17;;;0.17;;
74229;SDS011;62589;12.568;99.958;2022-08-04T00:22:31;1.15;;;0.10;;
74229;SDS011;62589;12.568;99.958;2022-08-04T00:25:03;0.82;;;0.10;;
74229;SDS011;62589;12.568;99.958;2022-08-04T00:27:31;1.33;;;0.00;;
74229;SDS011;62589;12.568;99.958;2022-08-04T00:29:58;1.00;;;0.08;;
74229;SDS011;62589;12.568;99.958;2022-08-04T00:32:25;0.63;;;0.00;;
74229;SDS011;62589;12.568;99.958;2022-08-04T00:34:53;0.30;;;0.10;;
74229;SDS011;62589;12.568;99.958;2022-08-04T00:39:36;0.55;;;0.00;;
74229;SDS011;62589;12.568;99.958;2022-08-04T00:48:15;2.00;;;0.52;;
74229;SDS011;62589;12.568;99.958;2022-08-04T00:51:14;28.05;;;7.80;;
74229;SDS011;62589;12.568;99.958;2022-08-04T00:54:04;18.17;;;5.70;;
74229;SDS011;62589;12.568;99.958;2022-08-04T00:59:59;3.17;;;1.40;;
74229;SDS011;62589;12.568;99.958;2022-08-04T01:17:24;0.13;;;0.00;;
74229;SDS011;62589;12.568;99.958;2022-08-04T01:20:11;0.52;;;0.00;;
74229;SDS011;62589;12.568;99.958;2022-08-04T01:31:39;0.50;;;0.00;;
74229;SDS011;62589;12.568;99.958;2022-08-04T01:34:13;0.68;;;0.03;;
74229;SDS011;62589;12.568;99.958;2022-08-04T01:36:45;0.22;;;0.03;;
74229;SDS011;62589;12.568;99.958;2022-08-04T01:39:16;0.43;;;0.10;;
74229;SDS011;62589;12.568;99.958;2022-08-04T01:41:56;1.15;;;0.32;;
74229;SDS011;62589;12.568;99.958;2022-08-04T01:44:26;0.93;;;0.28;;
74229;SDS011;62589;12.568;99.958;2022-08-04T01:46:54;0.60;;;0.20;;
74229;SDS011;62589;12.568;99.958;2022-08-04T01:49:20;0.38;;;0.10;;
74229;SDS011;62589;12.568;99.958;2022-08-04T01:51:53;1.55;;;0.00;;
74229;SDS011;62589;12.568;99.958;2022-08-04T01:54:21;0.28;;;0.10;;
74229;SDS011;62589;12.568;99.958;2022-08-04T01:56:49;0.63;;;0.20;;
74229;SDS011;62589;12.568;99.958;2022-08-04T01:59:17;0.38;;;0.20;;
74229;SDS011;62589;12.568;99.958;2022-08-04T02:01:46;0.20;;;0.00;;
74229;SDS011;62589;12.568;99.958;2022-08-04T02:04:14;0.25;;;0.10;;
74229;SDS011;62589;12.568;99.958;2022-08-04T02:06:51;1.85;;;0.05;;
74229;SDS011;62589;12.568;99.958;2022-08-04T02:12:35;0.30;;;0.00;;
74229;SDS011;62589;12.568;99.958;2022-08-04T02:17:58;0.20;;;0.00;;
74229;SDS011;62589;12.568;99.958;2022-08-04T02:20:33;0.28;;;0.00;;
74229;SDS011;62589;12.568;99.958;2022-08-04T02:23:04;0.70;;;0.10;;
74229;SDS011;62589;12.568;99.958;2022-08-04T02:28:29;0.47;;;0.05;;
74229;SDS011;62589;12.568;99.958;2022-08-04T02:31:12;0.80;;;0.00;;
74229;SDS011;62589;12.568;99.958;2022-08-04T02:33:45;0.40;;;0.00;;
74229;SDS011;62589;12.568;99.958;2022-08-04T02:36:27;0.30;;;0.08;;
74229;SDS011;62589;12.568;99.958;2022-08-04T02:39:00;0.03;;;0.00;;
74229;SDS011;62589;12.568;99.958;2022-08-04T02:41:29;0.10;;;0.00;;
74229;SDS011;62589;12.568;99.958;2022-08-04T02:43:57;0.52;;;0.00;;
74229;SDS011;62589;12.568;99.958;2022-08-04T02:46:26;0.20;;;0.00;;
74229;SDS011;62589;12.568;99.958;2022-08-04T02:48:54;0.22;;;0.00;;
74229;SDS011;62589;12.568;99.958;2022-08-04T02:54:07;0.57;;;0.00;;
74229;SDS011;62589;12.568;99.958;2022-08-04T02:56:35;1.13;;;0.10;;
74229;SDS011;62589;12.568;99.958;2022-08-04T02:59:04;1.38;;;0.00;;
74229;SDS011;62589;12.568;99.958;2022-08-04T03:11:04;0.00;;;0.00;;
74229;SDS011;62589;12.568;99.958;2022-08-04T03:13:54;0.37;;;0.00;;
74229;SDS011;62589;12.568;99.958;2022-08-04T03:16:43;2.08;;;0.08;;
74229;SDS011;62589;12.568;99.958;2022-08-04T03:25:13;0.20;;;0.00;;
74229;SDS011;62589;12.568;99.958;2022-08-04T03:28:10;0.63;;;0.10;;
74229;SDS011;62589;12.568;99.958;2022-08-04T03:31:06;0.22;;;0.00;;
74229;SDS011;62589;12.568;99.958;2022-08-04T03:37:02;0.82;;;0.10;;
74229;SDS011;62589;12.568;99.958;2022-08-04T03:39:53;1.95;;;0.10;;
74229;SDS011;62589;12.568;99.958;2022-08-04T03:48:08;0.70;;;0.10;;
74229;SDS011;62589;12.568;99.958;2022-08-04T03:51:10;1.42;;;0.20;;
74229;SDS011;62589;12.568;99.958;2022-08-04T03:54:08;0.60;;;0.05;;
74229;SDS011;62589;12.568;99.958;2022-08-04T03:57:14;1.38;;;0.20;;
74229;SDS011;62589;12.568;99.958;2022-08-04T04:00:04;1.00;;;0.10;;
74229;SDS011;62589;12.568;99.958;2022-08-04T04:05:45;0.80;;;0.13;;
74229;SDS011;62589;12.568;99.958;2022-08-04T04:11:42;0.65;;;0.20;;
74229;SDS011;62589;12.568;99.958;2022-08-04T04:14:40;2.28;;;0.50;;
74229;SDS011;62589;12.568;99.958;2022-08-04T04:17:27;1.20;;;0.10;;
74229;SDS011;62589;12.568;99.958;2022-08-04T04:20:19;0.93;;;0.35;;
74229;SDS011;62589;12.568;99.958;2022-08-04T04:26:31;1.70;;;0.25;;
74229;SDS011;62589;12.568;99.958;2022-08-04T04:29:18;3.92;;;0.32;;
74229;SDS011;62589;12.568;99.958;2022-08-04T04:32:04;2.00;;;0.57;;
74229;SDS011;62589;12.568;99.958;2022-08-04T04:43:59;1.65;;;0.20;;
74229;SDS011;62589;12.568;99.958;2022-08-04T04:49:50;1.40;;;0.28;;
74229;SDS011;62589;12.568;99.958;2022-08-04T04:55:34;3.50;;;0.63;;
74229;SDS011;62589;12.568;99.958;2022-08-04T04:58:09;2.85;;;0.50;;
74229;SDS011;62589;12.568;99.958;2022-08-04T05:00:53;3.47;;;0.55;;
74229;SDS011;62589;12.568;99.958;2022-08-04T05:03:39;3.28;;;0.40;;
74229;SDS011;62589;12.568;99.958;2022-08-04T05:09:36;4.18;;;0.32;;
74229;SDS011;62589;12.568;99.958;2022-08-04T05:15:12;4.15;;;0.32;;
74229;SDS011;62589;12.568;99.958;2022-08-04T05:17:42;2.75;;;0.30;;
74229;SDS011;62589;12.568;99.958;2022-08-04T05:20:19;2.55;;;0.50;;
74229;SDS011;62589;12.568;99.958;2022-08-04T05:26:00;1.52;;;0.20;;
74229;SDS011;62589;12.568;99.958;2022-08-04T05:28:40;2.53;;;0.20;;
74229;SDS011;62589;12.568;99.958;2022-08-04T05:31:15;2.30;;;0.20;;
74229;SDS011;62589;12.568;99.958;2022-08-04T05:33:47;3.40;;;0.30;;
74229;SDS011;62589;12.568;99.958;2022-08-04T05:36:20;3.17;;;0.32;;
74229;SDS011;62589;12.568;99.958;2022-08-04T05:38:52;4.25;;;0.28;;
74229;SDS011;62589;12.568;99.958;2022-08-04T05:41:24;2.15;;;0.32;;
74229;SDS011;62589;12.568;99.958;2022-08-04T05:43:52;2.60;;;0.50;;
74229;SDS011;62589;12.568;99.958;2022-08-04T05:46:20;3.53;;;0.70;;
74229;SDS011;62589;12.568;99.958;2022-08-04T05:48:47;2.22;;;0.55;;
74229;SDS011;62589;12.568;99.958;2022-08-04T05:51:14;3.53;;;0.85;;
74229;SDS011;62589;12.568;99.958;2022-08-04T05:53:42;1.77;;;0.50;;
74229;SDS011;62589;12.568;99.958;2022-08-04T05:56:13;2.83;;;0.60;;
74229;SDS011;62589;12.568;99.958;2022-08-04T05:58:40;5.82;;;0.60;;
74229;SDS011;62589;12.568;99.958;2022-08-04T06:01:09;1.85;;;0.40;;
74229;SDS011;62589;12.568;99.958;2022-08-04T06:03:37;3.58;;;0.40;;
74229;SDS011;62589;12.568;99.958;2022-08-04T06:06:05;5.10;;;0.50;;
74229;SDS011;62589;12.568;99.958;2022-08-04T06:08:33;2.00;;;0.40;;
74229;SDS011;62589;12.568;99.958;2022-08-04T06:11:01;2.60;;;0.57;;
74229;SDS011;62589;12.568;99.958;2022-08-04T06:13:36;2.85;;;0.47;;
74229;SDS011;62589;12.568;99.958;2022-08-04T06:16:15;2.05;;;0.63;;
74229;SDS011;62589;12.568;99.958;2022-08-04T06:18:46;2.28;;;0.50;;
74229;SDS011;62589;12.568;99.958;2022-08-04T06:21:16;4.65;;;1.08;;
74229;SDS011;62589;12.568;99.958;2022-08-04T06:23:47;3.03;;;0.70;;
74229;SDS011;62589;12.568;99.958;2022-08-04T06:26:16;3.05;;;0.65;;
74229;SDS011;62589;12.568;99.958;2022-08-04T06:28:48;2.15;;;0.40;;
74229;SDS011;62589;12.568;99.958;2022-08-04T06:31:16;1.23;;;0.50;;
74229;SDS011;62589;12.568;99.958;2022-08-04T06:34:02;5.72;;;0.77;;
74229;SDS011;62589;12.568;99.958;2022-08-04T06:36:31;1.50;;;0.50;;
74229;SDS011;62589;12.568;99.958;2022-08-04T06:39:02;1.85;;;0.50;;
74229;SDS011;62589;12.568;99.958;2022-08-04T06:41:30;2.67;;;0.80;;
74229;SDS011;62589;12.568;99.958;2022-08-04T06:44:12;3.90;;;0.60;;
74229;SDS011;62589;12.568;99.958;2022-08-04T06:46:40;2.50;;;0.32;;
74229;SDS011;62589;12.568;99.958;2022-08-04T06:49:08;2.83;;;0.65;;
74229;SDS011;62589;12.568;99.958;2022-08-04T06:51:36;3.05;;;0.63;;
74229;SDS011;62589;12.568;99.958;2022-08-04T06:54:04;1.55;;;0.40;;
74229;SDS011;62589;12.568;99.958;2022-08-04T06:56:32;1.20;;;0.40;;
74229;SDS011;62589;12.568;99.958;2022-08-04T06:59:01;2.47;;;0.50;;
74229;SDS011;62589;12.568;99.958;2022-08-04T07:01:28;6.38;;;0.95;;
74229;SDS011;62589;12.568;99.958;2022-08-04T07:03:56;1.52;;;0.50;;
74229;SDS011;62589;12.568;99.958;2022-08-04T07:06:23;3.15;;;0.77;;
74229;SDS011;62589;12.568;99.958;2022-08-04T07:08:50;1.85;;;0.68;;
74229;SDS011;62589;12.568;99.958;2022-08-04T07:11:18;2.28;;;0.55;;
74229;SDS011;62589;12.568;99.958;2022-08-04T07:13:45;6.45;;;4.20;;
74229;SDS011;62589;12.568;99.958;2022-08-04T07:16:14;7.03;;;3.30;;
74229;SDS011;62589;12.568;99.958;2022-08-04T07:18:43;3.95;;;1.85;;
74229;SDS011;62589;12.568;99.958;2022-08-04T07:21:10;1.98;;;0.75;;
74229;SDS011;62589;12.568;99.958;2022-08-04T07:23:43;2.40;;;0.50;;
74229;SDS011;62589;12.568;99.958;2022-08-04T07:26:10;2.00;;;0.30;;
74229;SDS011;62589;12.568;99.958;2022-08-04T07:28:40;2.20;;;0.38;;
74229;SDS011;62589;12.568;99.958;2022-08-04T07:31:08;2.55;;;0.43;;
74229;SDS011;62589;12.568;99.958;2022-08-04T07:33:40;2.28;;;0.43;;
74229;SDS011;62589;12.568;99.958;2022-08-04T07:36:08;2.92;;;0.28;;
74229;SDS011;62589;12.568;99.958;2022-08-04T07:38:39;1.45;;;0.35;;
74229;SDS011;62589;12.568;99.958;2022-08-04T07:41:07;7.20;;;6.03;;
74229;SDS011;62589;12.568;99.958;2022-08-04T07:43:35;9.10;;;6.55;;
74229;SDS011;62589;12.568;99.958;2022-08-04T07:46:02;6.25;;;4.82;;
74229;SDS011;62589;12.568;99.958;2022-08-04T07:48:30;3.80;;;2.85;;
74229;SDS011;62589;12.568;99.958;2022-08-04T07:50:56;2.60;;;0.70;;
74229;SDS011;62589;12.568;99.958;2022-08-04T07:53:23;5.75;;;1.30;;
74229;SDS011;62589;12.568;99.958;2022-08-04T07:55:51;4.18;;;2.05;;
74229;SDS011;62589;12.568;99.958;2022-08-04T07:58:18;1.60;;;0.90;;
74229;SDS011;62589;12.568;99.958;2022-08-04T08:00:44;3.42;;;1.30;;
74229;SDS011;62589;12.568;99.958;2022-08-04T08:03:12;4.75;;;1.67;;
74229;SDS011;62589;12.568;99.958;2022-08-04T08:05:40;1.80;;;1.17;;
74229;SDS011;62589;12.568;99.958;2022-08-04T08:08:07;3.45;;;1.08;;
74229;SDS011;62589;12.568;99.958;2022-08-04T08:10:33;2.85;;;0.95;;
74229;SDS011;62589;12.568;99.958;2022-08-04T08:13:01;1.42;;;0.25;;
74229;SDS011;62589;12.568;99.958;2022-08-04T08:15:28;0.60;;;0.50;;
74229;SDS011;62589;12.568;99.958;2022-08-04T08:17:58;1.27;;;0.60;;
74229;SDS011;62589;12.568;99.958;2022-08-04T08:20:25;1.85;;;0.40;;
74229;SDS011;62589;12.568;99.958;2022-08-04T08:22:51;1.52;;;0.90;;
74229;SDS011;62589;12.568;99.958;2022-08-04T08:25:18;2.30;;;1.27;;
74229;SDS011;62589;12.568;99.958;2022-08-04T08:27:45;2.38;;;1.30;;
74229;SDS011;62589;12.568;99.958;2022-08-04T08:30:12;4.65;;;2.50;;
74229;SDS011;62589;12.568;99.958;2022-08-04T08:32:39;3.33;;;1.90;;
74229;SDS011;62589;12.568;99.958;2022-08-04T08:35:06;3.30;;;1.77;;
74229;SDS011;62589;12.568;99.958;2022-08-04T08:37:34;2.80;;;1.27;;
74229;SDS011;62589;12.568;99.958;2022-08-04T09:12:00;3.17;;;0.60;;
74229;SDS011;62589;12.568;99.958;2022-08-04T09:14:50;2.05;;;0.57;;
74229;SDS011;62589;12.568;99.958;2022-08-04T09:17:34;3.28;;;0.75;;
74229;SDS011;62589;12.568;99.958;2022-08-04T09:20:18;2.35;;;0.88;;
74229;SDS011;62589;12.568;99.958;2022-08-04T09:22:59;3.78;;;1.02;;
74229;SDS011;62589;12.568;99.958;2022-08-04T09:28:24;4.30;;;2.35;;
74229;SDS011;62589;12.568;99.958;2022-08-04T09:33:57;5.53;;;2.27;;
74229;SDS011;62589;12.568;99.958;2022-08-04T09:39:32;3.20;;;1.45;;
74229;SDS011;62589;12.568;99.958;2022-08-04T09:42:17;3.15;;;1.63;;
74229;SDS011;62589;12.568;99.958;2022-08-04T09:45:06;2.63;;;1.27;;
74229;SDS011;62589;12.568;99.958;2022-08-04T09:50:44;2.55;;;0.70;;
74229;SDS011;62589;12.568;99.958;2022-08-04T10:01:59;1.63;;;0.63;;
74229;SDS011;62589;12.568;99.958;2022-08-04T10:04:32;2.53;;;1.15;;
74229;SDS011;62589;12.568;99.958;2022-08-04T10:07:06;4.28;;;1.65;;
74229;SDS011;62589;12.568;99.958;2022-08-04T10:15:47;3.40;;;1.00;;
74229;SDS011;62589;12.568;99.958;2022-08-04T10:27:23;3.33;;;1.00;;
74229;SDS011;62589;12.568;99.958;2022-08-04T10:30:04;3.15;;;0.93;;
74229;SDS011;62589;12.568;99.958;2022-08-04T10:35:27;2.65;;;1.33;;
74229;SDS011;62589;12.568;99.958;2022-08-04T10:38:21;4.90;;;1.85;;
74229;SDS011;62589;12.568;99.958;2022-08-04T10:41:08;4.38;;;2.15;;
74229;SDS011;62589;12.568;99.958;2022-08-04T10:46:43;3.95;;;2.17;;
74229;SDS011;62589;12.568;99.958;2022-08-04T10:54:18;2.97;;;1.95;;
74229;SDS011;62589;12.568;99.958;2022-08-04T10:57:00;4.03;;;1.63;;
74229;SDS011;62589;12.568;99.958;2022-08-04T11:02:37;3.22;;;2.05;;
74229;SDS011;62589;12.568;99.958;2022-08-04T11:05:28;3.33;;;2.20;;
74229;SDS011;62589;12.568;99.958;2022-08-04T11:08:11;4.28;;;1.90;;
74229;SDS011;62589;12.568;99.958;2022-08-04T11:11:00;3.65;;;2.00;;
74229;SDS011;62589;12.568;99.958;2022-08-04T11:13:41;1.80;;;1.48;;
74229;SDS011;62589;12.568;99.958;2022-08-04T11:21:42;2.45;;;1.50;;
74229;SDS011;62589;12.568;99.958;2022-08-04T11:24:23;3.53;;;1.60;;
74229;SDS011;62589;12.568;99.958;2022-08-04T11:27:12;1.92;;;1.10;;
74229;SDS011;62589;12.568;99.958;2022-08-04T11:35:34;1.42;;;0.90;;
74229;SDS011;62589;12.568;99.958;2022-08-04T11:38:36;1.77;;;1.00;;
74229;SDS011;62589;12.568;99.958;2022-08-04T11:41:10;1.77;;;1.00;;
74229;SDS011;62589;12.568;99.958;2022-08-04T11:43:44;2.35;;;1.13;;
74229;SDS011;62589;12.568;99.958;2022-08-04T11:46:25;3.70;;;1.60;;
74229;SDS011;62589;12.568;99.958;2022-08-04T11:51:55;3.03;;;1.85;;
74229;SDS011;62589;12.568;99.958;2022-08-04T11:54:25;5.75;;;2.80;;
74229;SDS011;62589;12.568;99.958;2022-08-04T11:56:52;7.60;;;5.13;;
74229;SDS011;62589;12.568;99.958;2022-08-04T11:59:20;12.25;;;5.50;;
74229;SDS011;62589;12.568;99.958;2022-08-04T12:05:00;6.35;;;3.10;;
74229;SDS011;62589;12.568;99.958;2022-08-04T12:13:30;3.58;;;0.80;;
74229;SDS011;62589;12.568;99.958;2022-08-04T12:19:03;2.67;;;0.90;;
74229;SDS011;62589;12.568;99.958;2022-08-04T12:21:42;1.95;;;0.73;;
74229;SDS011;62589;12.568;99.958;2022-08-04T12:24:22;2.22;;;0.75;;
74229;SDS011;62589;12.568;99.958;2022-08-04T12:26:57;0.82;;;0.50;;
74229;SDS011;62589;12.568;99.958;2022-08-04T12:29:30;1.98;;;0.65;;
74229;SDS011;62589;12.568;99.958;2022-08-04T12:32:03;1.58;;;0.52;;
74229;SDS011;62589;12.568;99.958;2022-08-04T12:34:39;2.85;;;0.40;;
74229;SDS011;62589;12.568;99.958;2022-08-04T12:40:10;2.28;;;0.73;;
74229;SDS011;62589;12.568;99.958;2022-08-04T12:42:44;1.90;;;0.70;;
74229;SDS011;62589;12.568;99.958;2022-08-04T12:45:18;1.00;;;0.68;;
74229;SDS011;62589;12.568;99.958;2022-08-04T12:47:47;2.45;;;0.47;;
74229;SDS011;62589;12.568;99.958;2022-08-04T12:50:17;1.50;;;0.57;;
74229;SDS011;62589;12.568;99.958;2022-08-04T12:52:51;1.55;;;0.80;;
74229;SDS011;62589;12.568;99.958;2022-08-04T12:55:22;3.25;;;0.40;;
74229;SDS011;62589;12.568;99.958;2022-08-04T12:57:52;1.27;;;0.40;;
74229;SDS011;62589;12.568;99.958;2022-08-04T13:00:26;1.17;;;0.40;;
74229;SDS011;62589;12.568;99.958;2022-08-04T13:02:58;2.35;;;0.65;;
74229;SDS011;62589;12.568;99.958;2022-08-04T13:05:31;1.10;;;0.55;;
74229;SDS011;62589;12.568;99.958;2022-08-04T13:07:59;0.90;;;0.20;;
74229;SDS011;62589;12.568;99.958;2022-08-04T13:10:28;1.52;;;0.30;;
74229;SDS011;62589;12.568;99.958;2022-08-04T13:12:58;1.25;;;0.22;;
74229;SDS011;62589;12.568;99.958;2022-08-04T13:15:26;1.25;;;0.40;;
74229;SDS011;62589;12.568;99.958;2022-08-04T13:20:39;1.55;;;0.50;;
74229;SDS011;62589;12.568;99.958;2022-08-04T13:23:09;1.67;;;0.35;;
74229;SDS011;62589;12.568;99.958;2022-08-04T13:25:49;0.82;;;0.50;;
74229;SDS011;62589;12.568;99.958;2022-08-04T13:28:22;1.10;;;0.30;;
74229;SDS011;62589;12.568;99.958;2022-08-04T13:30:54;1.25;;;0.30;;
74229;SDS011;62589;12.568;99.958;2022-08-04T13:33:36;2.28;;;0.50;;
74229;SDS011;62589;12.568;99.958;2022-08-04T13:36:06;3.38;;;0.40;;
74229;SDS011;62589;12.568;99.958;2022-08-04T13:38:34;1.35;;;0.20;;
74229;SDS011;62589;12.568;99.958;2022-08-04T13:41:03;0.60;;;0.10;;
74229;SDS011;62589;12.568;99.958;2022-08-04T13:43:32;2.40;;;0.20;;
74229;SDS011;62589;12.568;99.958;2022-08-04T13:46:08;1.40;;;0.20;;
74229;SDS011;62589;12.568;99.958;2022-08-04T13:48:41;0.63;;;0.10;;
74229;SDS011;62589;12.568;99.958;2022-08-04T13:51:09;0.70;;;0.00;;
74229;SDS011;62589;12.568;99.958;2022-08-04T13:53:38;1.88;;;0.20;;
74229;SDS011;62589;12.568;99.958;2022-08-04T13:56:06;1.40;;;0.20;;
74229;SDS011;62589;12.568;99.958;2022-08-04T13:58:38;1.38;;;0.20;;
74229;SDS011;62589;12.568;99.958;2022-08-04T14:01:14;0.70;;;0.20;;
74229;SDS011;62589;12.568;99.958;2022-08-04T14:03:51;1.25;;;0.20;;
74229;SDS011;62589;12.568;99.958;2022-08-04T14:06:33;1.15;;;0.05;;
74229;SDS011;62589;12.568;99.958;2022-08-04T14:09:13;1.00;;;0.10;;
74229;SDS011;62589;12.568;99.958;2022-08-04T14:11:48;1.48;;;0.20;;
74229;SDS011;62589;12.568;99.958;2022-08-04T14:14:18;0.65;;;0.17;;
74229;SDS011;62589;12.568;99.958;2022-08-04T14:16:54;1.98;;;0.30;;
74229;SDS011;62589;12.568;99.958;2022-08-04T14:25:07;2.38;;;0.10;;
74229;SDS011;62589;12.568;99.958;2022-08-04T14:30:23;0.57;;;0.10;;
74229;SDS011;62589;12.568;99.958;2022-08-04T14:33:06;0.85;;;0.20;;
74229;SDS011;62589;12.568;99.958;2022-08-04T14:35:34;0.47;;;0.10;;
74229;SDS011;62589;12.568;99.958;2022-08-04T14:38:09;1.08;;;0.10;;
74229;SDS011;62589;12.568;99.958;2022-08-04T14:43:03;0.73;;;0.05;;
74229;SDS011;62589;12.568;99.958;2022-08-04T14:45:36;0.30;;;0.00;;
74229;SDS011;62589;12.568;99.958;2022-08-04T14:48:08;0.55;;;0.00;;
74229;SDS011;62589;12.568;99.958;2022-08-04T14:50:40;0.60;;;0.00;;
74229;SDS011;62589;12.568;99.958;2022-08-04T14:53:15;0.80;;;0.00;;
74229;SDS011;62589;12.568;99.958;2022-08-04T14:55:50;0.85;;;0.10;;
74229;SDS011;62589;12.568;99.958;2022-08-04T14:58:20;0.88;;;0.00;;
74229;SDS011;62589;12.568;99.958;2022-08-04T15:00:58;2.20;;;0.05;;
74229;SDS011;62589;12.568;99.958;2022-08-04T15:03:26;0.57;;;0.20;;
74229;SDS011;62589;12.568;99.958;2022-08-04T15:05:55;0.75;;;0.03;;
74229;SDS011;62589;12.568;99.958;2022-08-04T15:08:23;0.85;;;0.00;;
74229;SDS011;62589;12.568;99.958;2022-08-04T15:10:50;0.85;;;0.10;;
74229;SDS011;62589;12.568;99.958;2022-08-04T15:13:23;1.27;;;0.10;;
74229;SDS011;62589;12.568;99.958;2022-08-04T15:15:50;1.48;;;0.10;;
74229;SDS011;62589;12.568;99.958;2022-08-04T15:18:18;0.70;;;0.00;;
74229;SDS011;62589;12.568;99.958;2022-08-04T15:20:45;0.17;;;0.03;;
74229;SDS011;62589;12.568;99.958;2022-08-04T15:23:12;0.43;;;0.00;;
74229;SDS011;62589;12.568;99.958;2022-08-04T15:25:40;0.10;;;0.00;;
74229;SDS011;62589;12.568;99.958;2022-08-04T15:28:11;0.40;;;0.00;;
74229;SDS011;62589;12.568;99.958;2022-08-04T15:30:41;1.15;;;0.08;;
74229;SDS011;62589;12.568;99.958;2022-08-04T15:33:10;0.82;;;0.00;;
74229;SDS011;62589;12.568;99.958;2022-08-04T15:35:41;1.60;;;0.10;;
74229;SDS011;62589;12.568;99.958;2022-08-04T15:38:15;0.85;;;0.10;;
74229;SDS011;62589;12.568;99.958;2022-08-04T15:43:49;0.88;;;0.00;;
74229;SDS011;62589;12.568;99.958;2022-08-04T15:47:03;1.02;;;0.00;;
74229;SDS011;62589;12.568;99.958;2022-08-04T15:49:41;0.57;;;0.00;;
74229;SDS011;62589;12.568;99.958;2022-08-04T15:52:10;0.10;;;0.00;;
74229;SDS011;62589;12.568;99.958;2022-08-04T15:54:40;0.82;;;0.10;;
74229;SDS011;62589;12.568;99.958;2022-08-04T15:57:07;0.77;;;0.10;;
74229;SDS011;62589;12.568;99.958;2022-08-04T16:02:29;0.45;;;0.10;;
74229;SDS011;62589;12.568;99.958;2022-08-04T16:10:39;0.40;;;0.00;;
74229;SDS011;62589;12.568;99.958;2022-08-04T16:13:08;0.60;;;0.10;;
74229;SDS011;62589;12.568;99.958;2022-08-04T16:15:49;0.10;;;0.00;;
74229;SDS011;62589;12.568;99.958;2022-08-04T16:21:18;1.00;;;0.00;;
74229;SDS011;62589;12.568;99.958;2022-08-04T16:23:53;0.90;;;0.00;;
74229;SDS011;62589;12.568;99.958;2022-08-04T16:34:55;0.68;;;0.00;;
74229;SDS011;62589;12.568;99.958;2022-08-04T16:37:41;1.98;;;0.10;;
74229;SDS011;62589;12.568;99.958;2022-08-04T16:43:06;1.40;;;0.15;;
74229;SDS011;62589;12.568;99.958;2022-08-04T16:45:42;0.50;;;0.10;;
74229;SDS011;62589;12.568;99.958;2022-08-04T16:48:19;1.67;;;0.10;;
74229;SDS011;62589;12.568;99.958;2022-08-04T16:50:50;0.40;;;0.00;;
74229;SDS011;62589;12.568;99.958;2022-08-04T16:53:43;1.48;;;0.03;;
74229;SDS011;62589;12.568;99.958;2022-08-04T16:56:12;1.52;;;0.13;;
74229;SDS011;62589;12.568;99.958;2022-08-04T16:58:43;0.40;;;0.00;;
74229;SDS011;62589;12.568;99.958;2022-08-04T17:01:13;1.50;;;0.30;;
74229;SDS011;62589;12.568;99.958;2022-08-04T17:03:51;0.32;;;0.10;;
74229;SDS011;62589;12.568;99.958;2022-08-04T17:06:17;4.32;;;0.38;;
74229;SDS011;62589;12.568;99.958;2022-08-04T17:08:44;0.50;;;0.00;;
74229;SDS011;62589;12.568;99.958;2022-08-04T17:11:13;0.45;;;0.10;;
74229;SDS011;62589;12.568;99.958;2022-08-04T17:13:43;1.42;;;0.00;;
74229;SDS011;62589;12.568;99.958;2022-08-04T17:16:14;1.02;;;0.05;;
74229;SDS011;62589;12.568;99.958;2022-08-04T17:18:47;0.52;;;0.08;;
74229;SDS011;62589;12.568;99.958;2022-08-04T17:21:19;0.22;;;0.00;;
74229;SDS011;62589;12.568;99.958;2022-08-04T17:23:48;0.77;;;0.10;;
74229;SDS011;62589;12.568;99.958;2022-08-04T17:26:23;1.10;;;0.15;;
74229;SDS011;62589;12.568;99.958;2022-08-04T17:28:54;0.30;;;0.10;;
74229;SDS011;62589;12.568;99.958;2022-08-04T17:31:23;0.75;;;0.10;;
74229;SDS011;62589;12.568;99.958;2022-08-04T17:33:52;0.40;;;0.00;;
74229;SDS011;62589;12.568;99.958;2022-08-04T17:36:24;0.25;;;0.00;;
74229;SDS011;62589;12.568;99.958;2022-08-04T17:38:56;1.60;;;0.00;;
74229;SDS011;62589;12.568;99.958;2022-08-04T17:41:25;0.10;;;0.00;;
74229;SDS011;62589;12.568;99.958;2022-08-04T17:44:00;1.50;;;0.30;;
74229;SDS011;62589;12.568;99.958;2022-08-04T17:46:34;0.98;;;0.10;;
74229;SDS011;62589;12.568;99.958;2022-08-04T17:51:55;0.82;;;0.10;;
74229;SDS011;62589;12.568;99.958;2022-08-04T17:54:34;1.23;;;0.03;;
74229;SDS011;62589;12.568;99.958;2022-08-04T17:59:45;0.57;;;0.00;;
74229;SDS011;62589;12.568;99.958;2022-08-04T18:02:21;0.32;;;0.00;;
74229;SDS011;62589;12.568;99.958;2022-08-04T18:04:49;2.20;;;0.20;;
74229;SDS011;62589;12.568;99.958;2022-08-04T18:07:23;0.65;;;0.15;;
74229;SDS011;62589;12.568;99.958;2022-08-04T18:10:06;0.70;;;0.00;;
74229;SDS011;62589;12.568;99.958;2022-08-04T18:12:34;0.95;;;0.10;;
74229;SDS011;62589;12.568;99.958;2022-08-04T18:15:03;1.70;;;0.10;;
74229;SDS011;62589;12.568;99.958;2022-08-04T18:17:39;0.43;;;0.10;;
74229;SDS011;62589;12.568;99.958;2022-08-04T18:20:15;1.80;;;0.00;;
74229;SDS011;62589;12.568;99.958;2022-08-04T18:22:44;1.02;;;0.10;;
74229;SDS011;62589;12.568;99.958;2022-08-04T18:25:13;0.68;;;0.00;;
74229;SDS011;62589;12.568;99.958;2022-08-04T18:27:51;0.50;;;0.20;;
74229;SDS011;62589;12.568;99.958;2022-08-04T18:30:21;1.48;;;0.10;;
74229;SDS011;62589;12.568;99.958;2022-08-04T18:32:50;1.15;;;0.08;;
74229;SDS011;62589;12.568;99.958;2022-08-04T18:35:20;0.90;;;0.10;;
74229;SDS011;62589;12.568;99.958;2022-08-04T18:37:47;1.80;;;0.13;;
74229;SDS011;62589;12.568;99.958;2022-08-04T18:40:15;0.82;;;0.20;;
74229;SDS011;62589;12.568;99.958;2022-08-04T18:42:42;2.03;;;0.30;;
74229;SDS011;62589;12.568;99.958;2022-08-04T18:45:09;0.98;;;0.30;;
74229;SDS011;62589;12.568;99.958;2022-08-04T18:47:37;0.80;;;0.28;;
74229;SDS011;62589;12.568;99.958;2022-08-04T18:50:04;2.83;;;0.32;;
74229;SDS011;62589;12.568;99.958;2022-08-04T18:52:31;1.10;;;0.10;;
74229;SDS011;62589;12.568;99.958;2022-08-04T18:54:58;1.30;;;0.20;;
74229;SDS011;62589;12.568;99.958;2022-08-04T18:57:25;2.42;;;0.50;;
74229;SDS011;62589;12.568;99.958;2022-08-04T18:59:53;1.83;;;0.40;;
74229;SDS011;62589;12.568;99.958;2022-08-04T19:02:20;1.73;;;0.30;;
74229;SDS011;62589;12.568;99.958;2022-08-04T19:04:47;1.38;;;0.20;;
74229;SDS011;62589;12.568;99.958;2022-08-04T19:07:14;2.45;;;0.10;;
74229;SDS011;62589;12.568;99.958;2022-08-04T19:09:41;3.45;;;0.20;;
74229;SDS011;62589;12.568;99.958;2022-08-04T19:12:08;0.95;;;0.20;;
74229;SDS011;62589;12.568;99.958;2022-08-04T19:14:35;1.75;;;0.20;;
74229;SDS011;62589;12.568;99.958;2022-08-04T19:17:02;1.23;;;0.15;;
74229;SDS011;62589;12.568;99.958;2022-08-04T19:19:29;2.58;;;0.10;;
74229;SDS011;62589;12.568;99.958;2022-08-04T19:21:55;1.75;;;0.30;;
74229;SDS011;62589;12.568;99.958;2022-08-04T19:24:21;2.42;;;0.45;;
74229;SDS011;62589;12.568;99.958;2022-08-04T19:26:48;1.38;;;0.40;;
74229;SDS011;62589;12.568;99.958;2022-08-04T19:29:14;1.63;;;0.32;;
74229;SDS011;62589;12.568;99.958;2022-08-04T19:31:42;1.20;;;0.20;;